createdAt,value
2023-03-16T00:00:02.397Z,6.80
2023-03-16T00:02:38.762Z,6.80
2023-03-16T00:05:21.057Z,7.10
2023-03-16T00:07:56.845Z,6.80
2023-03-16T00:10:33.441Z,7.00
2023-03-16T00:13:08.313Z,6.70
2023-03-16T00:15:54.387Z,6.80
2023-03-16T00:18:42.046Z,6.60
2023-03-16T00:21:21.146Z,6.50
2023-03-16T00:23:58.690Z,6.60
2023-03-16T00:26:33.389Z,6.60
2023-03-16T00:29:13.675Z,6.70
2023-03-16T00:31:53.080Z,6.70
2023-03-16T00:34:34.952Z,6.80
2023-03-16T00:37:09.890Z,7.20
2023-03-16T00:39:50.054Z,7.10
2023-03-16T00:42:27.589Z,7.10
2023-03-16T00:45:07.166Z,7.10
2023-03-16T00:47:44.552Z,7.00
2023-03-16T00:50:22.446Z,7.20
2023-03-16T00:52:59.942Z,7.00
2023-03-16T00:55:34.812Z,7.10
2023-03-16T00:58:14.887Z,7.40
2023-03-16T01:00:51.386Z,7.10
2023-03-16T01:03:29.458Z,7.10
2023-03-16T01:06:10.328Z,7.50
2023-03-16T01:08:46.997Z,7.20
2023-03-16T01:11:24.240Z,7.30
2023-03-16T01:14:02.362Z,7.00
2023-03-16T01:16:39.691Z,6.90
2023-03-16T01:19:14.714Z,7.10
2023-03-16T01:21:53.598Z,6.60
2023-03-16T01:24:30.241Z,7.00
2023-03-16T01:27:09.515Z,7.00
2023-03-16T01:29:45.361Z,7.20
2023-03-16T01:32:23.741Z,7.10
2023-03-16T01:34:59.767Z,6.80
2023-03-16T01:37:35.487Z,7.30
2023-03-16T01:40:16.434Z,6.90
2023-03-16T01:43:02.425Z,6.90
2023-03-16T01:46:18.317Z,6.60
2023-03-16T01:49:05.737Z,6.80
2023-03-16T01:51:51.662Z,7.20
2023-03-16T01:54:32.724Z,7.10
2023-03-16T01:57:12.053Z,6.80
2023-03-16T01:59:54.683Z,6.70
2023-03-16T02:02:33.741Z,7.00
2023-03-16T02:05:16.861Z,7.00
2023-03-16T02:07:58.649Z,6.60
2023-03-16T02:10:38.255Z,6.60
2023-03-16T02:13:13.352Z,6.60
2023-03-16T02:15:50.362Z,7.00
2023-03-16T02:18:26.558Z,6.60
2023-03-16T02:21:11.034Z,6.80
2023-03-16T02:26:32.128Z,6.30
2023-03-16T02:29:21.717Z,6.60
2023-03-16T02:32:00.061Z,6.90
2023-03-16T02:34:39.302Z,6.50
2023-03-16T02:37:14.717Z,6.70
2023-03-16T02:39:56.184Z,6.60
2023-03-16T02:42:38.689Z,6.30
2023-03-16T02:45:15.006Z,6.70
2023-03-16T02:47:54.873Z,6.70
2023-03-16T02:50:30.879Z,6.40
2023-03-16T02:53:08.607Z,6.20
2023-03-16T02:55:44.928Z,5.90
2023-03-16T02:58:21.713Z,5.80
2023-03-16T03:00:58.112Z,6.00
2023-03-16T03:03:36.022Z,6.20
2023-03-16T03:06:12.458Z,6.60
2023-03-16T03:08:48.704Z,5.90
2023-03-16T03:11:25.014Z,6.70
2023-03-16T03:14:04.460Z,6.30
2023-03-16T03:16:48.282Z,5.90
2023-03-16T03:19:23.678Z,5.90
2023-03-16T03:22:01.883Z,5.60
2023-03-16T03:24:41.461Z,6.20
2023-03-16T03:27:17.693Z,6.10
2023-03-16T03:29:52.814Z,6.50
2023-03-16T03:32:32.044Z,6.00
2023-03-16T03:35:12.464Z,5.80
2023-03-16T03:37:56.000Z,6.50
2023-03-16T03:40:33.199Z,6.20
2023-03-16T03:43:13.383Z,6.10
2023-03-16T03:45:51.480Z,5.80
2023-03-16T03:48:27.632Z,6.00
2023-03-16T03:51:06.707Z,6.20
2023-03-16T03:53:44.029Z,5.60
2023-03-16T03:56:23.730Z,6.20
2023-03-16T03:59:00.594Z,6.10
2023-03-16T04:01:37.620Z,6.00
2023-03-16T04:04:15.258Z,5.80
2023-03-16T04:06:54.953Z,6.30
2023-03-16T04:09:31.651Z,6.60
2023-03-16T04:12:14.558Z,6.50
2023-03-16T04:14:51.563Z,6.10
2023-03-16T04:17:27.813Z,6.00
2023-03-16T04:20:08.726Z,6.10
2023-03-16T04:22:45.689Z,6.40
2023-03-16T04:25:22.823Z,6.10
2023-03-16T04:27:57.754Z,5.90
2023-03-16T04:30:36.027Z,6.20
2023-03-16T04:33:15.094Z,6.30
2023-03-16T04:35:53.357Z,6.00
2023-03-16T04:38:30.798Z,6.30
2023-03-16T04:41:09.387Z,6.10
2023-03-16T04:43:43.767Z,5.60
2023-03-16T04:46:19.506Z,6.10
2023-03-16T04:48:58.448Z,5.60
2023-03-16T04:51:33.480Z,6.20
2023-03-16T04:54:09.249Z,6.40
2023-03-16T04:56:44.597Z,6.00
2023-03-16T04:59:19.976Z,5.60
2023-03-16T05:01:55.295Z,5.80
2023-03-16T05:04:30.720Z,6.10
2023-03-16T05:07:06.083Z,5.70
2023-03-16T05:09:43.264Z,6.10
2023-03-16T05:12:31.902Z,5.50
2023-03-16T05:15:09.668Z,6.00
2023-03-16T05:17:44.560Z,5.20
2023-03-16T05:20:22.249Z,6.00
2023-03-16T05:22:58.177Z,5.60
2023-03-16T05:25:32.542Z,5.90
2023-03-16T05:28:08.203Z,6.10
2023-03-16T05:30:45.201Z,5.70
2023-03-16T05:33:22.267Z,5.80
2023-03-16T05:35:57.496Z,5.80
2023-03-16T05:38:33.006Z,5.50
2023-03-16T05:41:15.255Z,6.00
2023-03-16T05:43:51.008Z,6.00
2023-03-16T05:46:25.361Z,5.60
2023-03-16T05:49:02.026Z,5.70
2023-03-16T05:51:36.430Z,5.40
2023-03-16T05:54:12.078Z,6.10
2023-03-16T05:56:47.405Z,5.60
2023-03-16T05:59:23.025Z,5.80
2023-03-16T06:01:58.548Z,5.60
2023-03-16T06:04:34.457Z,6.10
2023-03-16T06:07:13.612Z,5.70
2023-03-16T06:09:48.483Z,6.10
2023-03-16T06:12:27.088Z,5.90
2023-03-16T06:15:07.284Z,6.30
2023-03-16T06:17:46.166Z,6.20
2023-03-16T06:20:24.792Z,6.00
2023-03-16T06:23:01.960Z,6.20
2023-03-16T06:25:41.099Z,6.00
2023-03-16T06:28:18.492Z,5.80
2023-03-16T06:30:56.141Z,6.20
2023-03-16T06:33:32.914Z,5.80
2023-03-16T06:36:11.937Z,6.10
2023-03-16T06:38:50.657Z,5.80
2023-03-16T06:41:28.073Z,6.20
2023-03-16T06:44:08.359Z,6.10
2023-03-16T06:46:44.210Z,5.50
2023-03-16T06:49:20.540Z,5.90
2023-03-16T06:51:59.059Z,5.80
2023-03-16T06:54:37.544Z,6.00
2023-03-16T06:57:15.260Z,5.70
2023-03-16T06:59:53.200Z,6.20
2023-03-16T07:02:35.863Z,5.70
2023-03-16T07:05:14.370Z,6.00
2023-03-16T07:07:55.655Z,5.90
2023-03-16T07:10:34.429Z,5.90
2023-03-16T07:13:14.992Z,5.90
2023-03-16T07:16:07.729Z,6.10
2023-03-16T07:18:45.126Z,5.80
2023-03-16T07:21:26.495Z,5.90
2023-03-16T07:27:10.368Z,6.30
2023-03-16T07:30:05.959Z,5.90
2023-03-16T07:32:44.557Z,6.00
2023-03-16T07:35:30.632Z,5.60
2023-03-16T07:38:12.320Z,6.00
2023-03-16T07:40:54.199Z,6.20
2023-03-16T07:43:37.093Z,6.00
2023-03-16T07:46:17.191Z,6.40
2023-03-16T07:48:58.387Z,5.70
2023-03-16T07:51:37.254Z,6.20
2023-03-16T07:54:20.114Z,5.90
2023-03-16T07:57:02.525Z,6.10
2023-03-16T07:59:43.739Z,6.10
2023-03-16T08:02:25.937Z,6.00
2023-03-16T08:05:13.970Z,5.90
2023-03-16T08:07:57.918Z,6.00
2023-03-16T08:10:36.286Z,6.20
2023-03-16T08:13:14.132Z,5.90
2023-03-16T08:15:58.956Z,6.10
2023-03-16T08:18:36.959Z,6.20
2023-03-16T08:21:15.516Z,6.30
2023-03-16T08:23:55.149Z,6.40
2023-03-16T08:26:35.246Z,6.30
2023-03-16T08:29:14.132Z,6.20
2023-03-16T08:31:50.234Z,6.30
2023-03-16T08:34:26.954Z,6.40
2023-03-16T08:37:05.115Z,6.10
2023-03-16T08:39:45.478Z,6.40
2023-03-16T08:42:21.402Z,6.20
2023-03-16T08:45:01.047Z,6.30
2023-03-16T08:47:49.359Z,6.90
2023-03-16T08:50:31.844Z,6.20
2023-03-16T08:53:13.784Z,6.30
2023-03-16T08:55:55.805Z,6.10
2023-03-16T08:58:42.259Z,6.50
2023-03-16T09:01:28.288Z,7.20
2023-03-16T09:04:03.808Z,6.00
2023-03-16T09:06:40.596Z,6.70
2023-03-16T09:09:23.787Z,6.70
2023-03-16T09:12:08.664Z,6.50
2023-03-16T09:14:47.123Z,6.70
2023-03-16T09:17:31.724Z,6.50
2023-03-16T09:20:22.655Z,6.90
2023-03-16T09:23:12.015Z,6.40
2023-03-16T09:25:53.436Z,6.60
2023-03-16T09:28:31.979Z,6.20
2023-03-16T09:31:27.155Z,6.40
2023-03-16T09:34:09.664Z,6.30
2023-03-16T09:36:48.553Z,6.20
2023-03-16T09:39:27.681Z,6.50
2023-03-16T09:42:21.376Z,6.30
2023-03-16T09:45:15.811Z,6.00
2023-03-16T09:48:11.158Z,5.90
2023-03-16T09:51:02.073Z,5.80
2023-03-16T09:53:42.047Z,5.60
2023-03-16T09:56:30.498Z,6.00
2023-03-16T09:59:19.395Z,6.00
2023-03-16T10:02:17.248Z,5.30
2023-03-16T10:05:06.920Z,5.30
2023-03-16T10:07:59.489Z,5.50
2023-03-16T10:10:59.691Z,5.30
2023-03-16T10:13:45.717Z,5.00
2023-03-16T10:16:27.679Z,5.10
2023-03-16T10:19:23.586Z,5.40
2023-03-16T10:22:10.249Z,5.20
2023-03-16T10:25:09.813Z,5.00
2023-03-16T10:27:52.536Z,5.20
2023-03-16T10:30:32.790Z,5.40
2023-03-16T10:33:23.467Z,5.00
2023-03-16T10:36:11.520Z,5.10
2023-03-16T10:39:10.076Z,4.80
2023-03-16T10:41:58.564Z,4.90
2023-03-16T10:44:47.640Z,4.90
2023-03-16T10:47:31.409Z,4.50
2023-03-16T10:50:26.673Z,4.60
2023-03-16T10:53:07.910Z,4.50
2023-03-16T10:55:51.416Z,4.80
2023-03-16T10:58:33.645Z,4.80
2023-03-16T11:01:31.603Z,4.60
2023-03-16T11:04:16.544Z,4.10
2023-03-16T11:07:04.518Z,4.60
2023-03-16T11:09:45.255Z,4.20
2023-03-16T11:12:32.324Z,4.00
2023-03-16T11:15:26.093Z,3.90
2023-03-16T11:18:07.805Z,3.90
2023-03-16T11:20:55.327Z,3.90
2023-03-16T11:23:50.099Z,3.60
2023-03-16T11:26:33.585Z,4.30
2023-03-16T11:29:32.777Z,3.80
2023-03-16T11:32:21.739Z,3.80
2023-03-16T11:35:19.712Z,3.80
2023-03-16T11:38:12.422Z,3.70
2023-03-16T11:41:03.445Z,3.90
2023-03-16T11:43:54.524Z,3.80
2023-03-16T11:46:41.066Z,3.40
2023-03-16T11:49:47.940Z,3.70
2023-03-16T11:52:46.400Z,3.40
2023-03-16T11:55:35.055Z,3.40
2023-03-16T11:58:36.684Z,3.20
2023-03-16T12:01:23.463Z,3.40
2023-03-16T12:04:24.740Z,3.50
2023-03-16T12:07:40.807Z,3.50
2023-03-16T12:10:37.318Z,3.60
2023-03-16T12:13:33.228Z,3.60
2023-03-16T12:16:21.930Z,3.80
2023-03-16T12:19:13.077Z,3.70
2023-03-16T12:22:01.171Z,3.30
2023-03-16T12:24:43.623Z,3.20
2023-03-16T12:27:25.459Z,3.60
2023-03-16T12:30:26.060Z,3.60
2023-03-16T12:33:22.614Z,3.40
2023-03-16T12:36:09.780Z,3.10
2023-03-16T12:39:15.695Z,3.30
2023-03-16T12:44:45.948Z,3.20
2023-03-16T12:47:37.965Z,3.10
2023-03-16T12:50:20.740Z,3.20
2023-03-16T12:52:58.776Z,3.00
2023-03-16T12:55:51.008Z,3.20
2023-03-16T12:58:28.272Z,3.00
2023-03-16T13:01:11.351Z,3.40
2023-03-16T13:04:01.973Z,3.20
2023-03-16T13:07:06.768Z,3.30
2023-03-16T13:09:49.494Z,3.30
2023-03-16T13:12:38.244Z,2.90
2023-03-16T13:15:34.661Z,3.30
2023-03-16T13:18:30.156Z,3.20
2023-03-16T13:21:21.522Z,3.00
2023-03-16T13:24:16.209Z,2.90
2023-03-16T13:27:03.105Z,2.90
2023-03-16T13:30:04.003Z,2.80
2023-03-16T13:32:44.246Z,2.70
2023-03-16T13:35:28.968Z,2.90
2023-03-16T13:38:15.224Z,2.80
2023-03-16T13:40:57.329Z,3.00
2023-03-16T13:43:38.715Z,3.00
2023-03-16T13:46:29.047Z,3.10
2023-03-16T13:49:07.208Z,2.80
2023-03-16T13:51:47.217Z,2.90
2023-03-16T13:54:31.814Z,3.00
2023-03-16T13:57:15.256Z,2.60
2023-03-16T13:59:50.632Z,2.90
2023-03-16T14:02:30.362Z,3.00
2023-03-16T14:05:20.119Z,3.10
2023-03-16T14:08:01.042Z,2.90
2023-03-16T14:10:41.061Z,3.20
2023-03-16T14:13:38.432Z,2.90
2023-03-16T14:16:19.995Z,3.00
2023-03-16T14:19:06.240Z,2.60
2023-03-16T14:21:47.308Z,2.80
2023-03-16T14:24:33.825Z,2.80
2023-03-16T14:30:02.933Z,2.60
2023-03-16T14:32:40.089Z,2.70
2023-03-16T14:35:21.964Z,2.90
2023-03-16T14:37:58.165Z,2.90
2023-03-16T14:40:36.053Z,3.10
2023-03-16T14:43:20.246Z,2.90
2023-03-16T14:45:59.129Z,2.70
2023-03-16T14:48:37.072Z,2.80
2023-03-16T14:51:17.333Z,2.80
2023-03-16T14:53:55.094Z,2.60
2023-03-16T14:56:36.696Z,3.00
2023-03-16T14:59:14.212Z,2.80
2023-03-16T15:01:49.661Z,2.70
2023-03-16T15:04:29.854Z,2.80
2023-03-16T15:07:14.565Z,2.40
2023-03-16T15:09:55.889Z,2.50
2023-03-16T15:12:34.536Z,2.50
2023-03-16T15:15:20.349Z,2.40
2023-03-16T15:17:57.587Z,2.50
2023-03-16T15:20:40.807Z,2.40
2023-03-16T15:23:21.369Z,2.40
2023-03-16T15:26:02.795Z,2.70
2023-03-16T15:28:39.929Z,2.30
2023-03-16T15:31:18.299Z,2.20
2023-03-16T15:33:59.774Z,2.30
2023-03-16T15:36:34.709Z,2.40
2023-03-16T15:39:21.772Z,2.40
2023-03-16T15:42:00.591Z,2.20
2023-03-16T15:44:37.227Z,2.60
2023-03-16T15:47:20.594Z,2.50
2023-03-16T15:49:55.887Z,2.40
2023-03-16T15:52:36.801Z,2.50
2023-03-16T15:55:20.903Z,2.40
2023-03-16T15:58:02.512Z,2.30
2023-03-16T16:00:40.964Z,2.30
2023-03-16T16:03:17.766Z,2.30
2023-03-16T16:05:56.613Z,2.40
2023-03-16T16:08:31.636Z,2.10
2023-03-16T16:11:13.513Z,2.20
2023-03-16T16:13:52.848Z,2.30
2023-03-16T16:16:32.571Z,2.20
2023-03-16T16:19:19.247Z,2.30
2023-03-16T16:21:58.322Z,2.00
2023-03-16T16:24:33.468Z,2.10
2023-03-16T16:27:15.043Z,2.10
2023-03-16T16:29:49.824Z,2.50
2023-03-16T16:32:34.741Z,2.00
2023-03-16T16:35:21.563Z,2.10
2023-03-16T16:37:58.428Z,2.20
2023-03-16T16:40:45.897Z,1.90
2023-03-16T16:43:36.070Z,2.20
2023-03-16T16:46:17.606Z,2.50
2023-03-16T16:48:55.541Z,2.10
2023-03-16T16:51:33.213Z,2.30
2023-03-16T16:54:20.198Z,1.90
2023-03-16T16:56:57.914Z,2.10
2023-03-16T16:59:35.102Z,2.00
2023-03-16T17:02:32.341Z,2.00
2023-03-16T17:05:17.463Z,1.90
2023-03-16T17:07:56.469Z,1.80
2023-03-16T17:10:31.472Z,1.70
2023-03-16T17:13:30.467Z,2.20
2023-03-16T17:16:05.665Z,1.90
2023-03-16T17:18:41.699Z,1.90
2023-03-16T17:21:24.157Z,2.00
2023-03-16T17:24:00.453Z,2.00
2023-03-16T17:26:40.688Z,2.30
2023-03-16T17:29:23.640Z,2.20
2023-03-16T17:31:58.675Z,2.50
2023-03-16T17:34:38.886Z,2.50
2023-03-16T17:37:21.166Z,2.30
2023-03-16T17:39:57.532Z,2.30
2023-03-16T17:42:32.381Z,2.40
2023-03-16T17:45:18.288Z,2.30
2023-03-16T17:47:56.149Z,2.30
2023-03-16T17:50:33.890Z,2.60
2023-03-16T17:53:10.140Z,2.80
2023-03-16T17:55:48.654Z,2.50
2023-03-16T17:58:30.380Z,2.50
2023-03-16T18:01:08.210Z,2.60
2023-03-16T18:03:45.941Z,2.70
2023-03-16T18:06:26.059Z,2.90
2023-03-16T18:09:02.195Z,2.80
2023-03-16T18:11:46.453Z,2.70
2023-03-16T18:14:35.316Z,2.90
2023-03-16T18:17:22.604Z,2.70
2023-03-16T18:19:57.610Z,2.90
2023-03-16T18:22:34.322Z,3.10
2023-03-16T18:25:33.299Z,2.80
2023-03-16T18:28:09.918Z,3.00
2023-03-16T18:30:47.783Z,3.20
2023-03-16T18:33:31.253Z,3.20
2023-03-16T18:36:18.553Z,3.20
2023-03-16T18:38:58.723Z,3.10
2023-03-16T18:41:36.517Z,3.20
2023-03-16T18:44:22.145Z,3.40
2023-03-16T18:47:07.446Z,3.40
2023-03-16T18:49:44.086Z,3.50
2023-03-16T18:52:22.506Z,3.30
2023-03-16T18:54:58.928Z,3.10
2023-03-16T18:57:39.330Z,3.00
2023-03-16T19:00:28.392Z,3.30
2023-03-16T19:03:12.577Z,3.60
2023-03-16T19:05:49.102Z,3.30
2023-03-16T19:08:27.509Z,3.20
2023-03-16T19:11:11.394Z,3.50
2023-03-16T19:13:52.601Z,3.50
2023-03-16T19:16:30.970Z,3.50
2023-03-16T19:19:08.577Z,3.40
2023-03-16T19:21:48.717Z,3.30
2023-03-16T19:24:30.754Z,3.20
2023-03-16T19:27:09.194Z,3.40
2023-03-16T19:29:52.067Z,3.40
2023-03-16T19:32:28.764Z,3.50
2023-03-16T19:35:04.329Z,3.50
2023-03-16T19:37:47.196Z,3.60
2023-03-16T19:40:29.290Z,3.70
2023-03-16T19:43:05.625Z,3.90
2023-03-16T19:45:44.370Z,3.80
2023-03-16T19:48:26.580Z,3.40
2023-03-16T19:51:09.513Z,3.50
2023-03-16T19:53:48.242Z,3.90
2023-03-16T19:56:26.815Z,3.60
2023-03-16T19:59:08.441Z,3.50
2023-03-16T20:01:47.510Z,3.60
2023-03-16T20:04:27.782Z,3.70
2023-03-16T20:07:15.387Z,3.60
2023-03-16T20:10:00.472Z,3.70
2023-03-16T20:12:46.026Z,3.60
2023-03-16T20:15:24.252Z,3.60
2023-03-16T20:18:02.257Z,3.70
2023-03-16T20:20:37.633Z,3.60
2023-03-16T20:23:26.178Z,3.40
2023-03-16T20:26:03.926Z,3.50
2023-03-16T20:28:40.840Z,3.50
2023-03-16T20:31:22.743Z,3.30
2023-03-16T20:33:58.109Z,3.80
2023-03-16T20:36:33.206Z,3.50
2023-03-16T20:39:09.684Z,3.20
2023-03-16T20:41:46.468Z,3.50
2023-03-16T20:44:30.710Z,3.50
2023-03-16T20:47:12.487Z,3.60
2023-03-16T20:49:49.280Z,3.20
2023-03-16T20:52:28.844Z,3.40
2023-03-16T20:55:06.875Z,3.30
2023-03-16T20:57:44.157Z,3.40
2023-03-16T21:00:44.400Z,3.40
2023-03-16T21:03:27.666Z,3.30
2023-03-16T21:06:02.419Z,3.20
2023-03-16T21:08:37.892Z,3.30
2023-03-16T21:11:23.553Z,3.40
2023-03-16T21:13:57.832Z,3.10
2023-03-16T21:16:33.272Z,3.60
2023-03-16T21:19:15.702Z,3.30
2023-03-16T21:21:51.379Z,3.50
2023-03-16T21:24:29.060Z,3.60
2023-03-16T21:27:03.025Z,3.80
2023-03-16T21:29:36.708Z,3.70
2023-03-16T21:32:21.519Z,4.00
2023-03-16T21:34:57.428Z,3.70
2023-03-16T21:37:33.913Z,3.50
2023-03-16T21:40:19.177Z,3.40
2023-03-16T21:42:53.815Z,3.60
2023-03-16T21:45:30.547Z,3.80
2023-03-16T21:48:05.639Z,3.80
2023-03-16T21:50:42.860Z,3.70
2023-03-16T21:53:25.633Z,3.80
2023-03-16T21:56:00.518Z,3.50
2023-03-16T21:58:35.837Z,3.70
2023-03-16T22:01:10.059Z,3.90
2023-03-16T22:03:50.816Z,3.50
2023-03-16T22:06:27.911Z,4.00
2023-03-16T22:09:04.880Z,3.80
2023-03-16T22:11:38.973Z,3.80
2023-03-16T22:16:47.020Z,4.30
2023-03-16T22:19:23.345Z,3.90
2023-03-16T22:21:59.153Z,4.30
2023-03-16T22:24:36.022Z,4.80
2023-03-16T22:27:22.679Z,5.30
2023-03-16T22:29:59.145Z,4.90
2023-03-16T22:32:33.800Z,5.00
2023-03-16T22:35:11.056Z,5.30
2023-03-16T22:37:45.341Z,4.90
2023-03-16T22:40:23.128Z,5.40
2023-03-16T22:42:59.399Z,5.50
2023-03-16T22:45:35.175Z,5.40
2023-03-16T22:48:20.169Z,5.70
2023-03-16T22:50:55.045Z,5.50
2023-03-16T22:53:37.462Z,5.60
2023-03-16T22:56:12.903Z,5.50
2023-03-16T22:58:51.057Z,5.80
2023-03-16T23:01:30.212Z,5.30
2023-03-16T23:04:07.255Z,5.70
2023-03-16T23:06:41.916Z,6.30
2023-03-16T23:09:18.826Z,6.10
2023-03-16T23:12:00.601Z,6.00
2023-03-16T23:14:38.273Z,6.00
2023-03-16T23:17:19.302Z,6.50
2023-03-16T23:19:53.482Z,6.00
2023-03-16T23:24:59.006Z,6.20
2023-03-16T23:27:31.674Z,6.30
2023-03-16T23:30:15.286Z,6.60
2023-03-16T23:32:50.259Z,6.50
2023-03-16T23:35:29.753Z,6.60
2023-03-16T23:38:03.900Z,6.80
2023-03-16T23:40:41.069Z,7.10
2023-03-16T23:43:16.178Z,7.10
2023-03-16T23:45:52.223Z,6.50
2023-03-16T23:48:27.457Z,6.90
2023-03-16T23:51:02.528Z,6.30
2023-03-16T23:53:38.130Z,7.20
2023-03-16T23:56:15.014Z,7.00
2023-03-16T23:58:51.960Z,6.90
